createdAt,value
2019-06-08T18:02:10.254Z,2.67
2019-06-08T18:04:43.295Z,3.17
2019-06-08T18:07:17.590Z,3.25
2019-06-08T18:09:52.124Z,2.90
2019-06-08T18:25:10.320Z,3.20
2019-06-08T18:28:00.830Z,2.92
2019-06-08T18:30:21.484Z,3.72
2019-06-08T18:32:54.761Z,3.47
2019-06-08T18:35:28.009Z,4.40
2019-06-08T18:40:34.878Z,3.63
2019-06-08T18:43:08.360Z,3.07
2019-06-08T18:45:43.199Z,3.75
2019-06-08T18:48:18.027Z,3.05
2019-06-08T19:49:30.605Z,2.37
2019-06-08T19:52:05.245Z,2.72
2019-06-08T19:54:45.386Z,2.80
2019-06-08T19:57:13.979Z,2.80
2019-06-08T20:22:44.544Z,3.27
2019-06-08T20:25:17.989Z,3.08
2019-06-08T20:27:51.685Z,3.47
2019-06-08T20:30:25.206Z,3.60
2019-06-08T20:32:58.494Z,3.20
2019-06-08T20:35:31.837Z,3.10
2019-06-08T20:38:05.132Z,2.35
2019-06-08T20:40:38.739Z,2.17
2019-06-08T20:43:12.027Z,2.92
2019-06-08T20:45:46.658Z,3.70
2019-06-08T20:48:20.372Z,4.95
2019-06-08T20:50:53.983Z,4.92
2019-06-08T20:53:28.318Z,3.70
2019-06-08T20:56:01.771Z,3.98
2019-06-08T21:44:34.339Z,4.15
2019-06-08T21:47:08.814Z,4.37
2019-06-08T21:49:42.212Z,4.28
2019-06-08T21:52:17.934Z,4.25
2019-06-08T22:00:14.082Z,5.62
2019-06-08T22:02:30.910Z,5.67
2019-06-08T22:05:08.036Z,4.92
2019-06-08T22:07:40.555Z,4.65
2019-06-08T22:10:13.814Z,5.00
2019-06-08T22:12:48.291Z,5.03
2019-06-08T22:15:22.169Z,4.35
2019-06-08T22:17:55.456Z,3.52
2019-06-08T22:25:34.553Z,3.40
2019-06-08T22:28:07.851Z,3.83
2019-06-08T22:30:43.076Z,4.45
2019-06-08T22:33:17.587Z,3.27
2019-06-08T22:38:23.360Z,3.20
2019-06-08T22:40:57.626Z,2.72
2019-06-08T22:43:31.695Z,2.70
2019-06-08T22:46:04.987Z,2.80
2019-06-08T22:48:38.553Z,2.62
2019-06-08T22:51:12.051Z,3.25
2019-06-08T22:53:47.763Z,3.33
2019-06-08T22:56:20.605Z,3.17
2019-06-08T22:58:55.782Z,3.25
2019-06-08T23:01:28.811Z,2.95
2019-06-08T23:04:03.990Z,2.77
2019-06-08T23:06:38.628Z,2.85
2019-06-08T23:09:12.087Z,3.33
2019-06-08T23:11:47.126Z,3.12
2019-06-08T23:14:20.547Z,2.83
2019-06-08T23:16:54.552Z,3.00
2019-06-08T23:19:28.189Z,3.00
2019-06-08T23:22:02.792Z,2.83
2019-06-08T23:24:38.262Z,2.65
2019-06-08T23:27:11.551Z,3.10
2019-06-08T23:29:44.842Z,2.90
2019-06-08T23:32:18.271Z,3.30
2019-06-08T23:34:51.604Z,3.35
2019-06-08T23:37:24.886Z,3.67
2019-06-08T23:52:47.837Z,5.58
2019-06-08T23:55:21.332Z,7.00
2019-06-08T23:57:54.625Z,8.53
